Messwerte Saint-Louis

Temperatur

Temperatur
°C
1615071600 23.00 23.00
1615075200 0.00 0.00 22
1615078800 1.00 1.00
1615082400 2.00 2.00
1615086000 3.00 3.00 20
1615089600 4.00 4.00
1615093200 5.00 5.00
1615096800 6.00 6.00 19
1615100400 7.00 7.00 19
1615104000 8.00 8.00 21
1615107600 9.00 9.00 22
1615111200 10.00 10.00 25
1615114800 11.00 11.00 29
1615118400 12.00 12.00 31
1615122000 13.00 13.00
1615125600 14.00 14.00 34
1615129200 15.00 15.00 35
1615132800 16.00 16.00 28
1615136400 17.00 17.00 29
1615140000 18.00 18.00 27
1615143600 19.00 19.00 25
1615147200 20.00 20.00 22
1615150800 21.00 21.00 21
1615154400 22.00 22.00 21

Aktuellste Messwerte

Wettercharakter
Wetter: meist klar
Temperatur
21 °C
Feuchtigkeit
65 %
Wind
15 km/hWindrichtung: Nord
Luftdruck
1014 hPa
Messzeit: 7. März 2021, 23.00Datenquelle: METAR

Weitere Messstationen in der Nähe

Messstation Temperatur Entfernung
Linguere 29 °C 156 km
Diourbel 27 °C 160 km
Podor 27 °C 163 km
Dakar 19 °C 192 km
Kaolack 30 °C 219 km
Banjul 23 °C 321 km
Matam 30 °C 338 km

Wind

Windrichtung Böen Mittelwind
° km/h km/h
1615071600 23.00 22.00 - 23.00
1615075200 0.00 23.00 - 0.00 360° 20
1615078800 1.00 0.00 - 1.00
1615082400 2.00 1.00 - 2.00
1615086000 3.00 2.00 - 3.00 360° 15
1615089600 4.00 3.00 - 4.00
1615093200 5.00 4.00 - 5.00
1615096800 6.00 5.00 - 6.00 360° 10
1615100400 7.00 6.00 - 7.00 360° 15
1615104000 8.00 7.00 - 8.00 20° 10
1615107600 9.00 8.00 - 9.00 360° 15
1615111200 10.00 9.00 - 10.00 30° 15
1615114800 11.00 10.00 - 11.00 40° 20
1615118400 12.00 11.00 - 12.00 40° 15
1615122000 13.00 12.00 - 13.00
1615125600 14.00 13.00 - 14.00 50° 15
1615129200 15.00 14.00 - 15.00 20° 10
1615132800 16.00 15.00 - 16.00 340° 15
1615136400 17.00 16.00 - 17.00 350° 20
1615140000 18.00 17.00 - 18.00 360° 20
1615143600 19.00 18.00 - 19.00 360° 20
1615147200 20.00 19.00 - 20.00 10° 20
1615150800 21.00 20.00 - 21.00 360° 20
1615154400 22.00 21.00 - 22.00 10° 15

Ihre Wetterstation

Fehlt Ihre Wetterstation auf unserem Portal?

Schreiben Sie an network@meteonews.ch

Klima

Wann ist es am wärmsten? Wann regnet es am wenigsten? Unsere Klimadaten geben Auskunft.